Time;durP1;ratioP1;P1;durP2;ratioP2;P2;SDS_P1;SDS_P2;PMS_P1;PMS_P2;Temp;Humidity;BMP_temperature;BMP_pressure;BME280_temperature;BME280_humidity;BME280_pressure;Samples;Min_cycle;Max_cycle;Signal;HPM_P1;HPM_P2
2022/09/03 00:00:04;;;;;;;2.65;1.15;;;20.70;64.60;;;;;;4061648;29;20512;-66
2022/09/03 00:02:26;;;;;;;2.75;1.60;;;20.80;68.10;;;;;;4144485;28;20132;-64
2022/09/03 00:04:42;;;;;;;2.28;1.40;;;20.80;65.10;;;;;;4144883;28;20038;-66
2022/09/03 00:06:49;;;;;;;2.75;1.48;;;20.80;65.00;;;;;;4143634;28;20091;-67
2022/09/03 00:08:58;;;;;;;4.00;1.83;;;20.70;64.50;;;;;;4145415;28;20050;-66
2022/09/03 00:11:17;;;;;;;1.77;1.33;;;20.70;66.40;;;;;;4145055;28;20512;-66
2022/09/03 00:13:41;;;;;;;2.20;1.25;;;20.70;65.60;;;;;;4142147;28;20034;-66
2022/09/03 00:15:42;;;;;;;1.23;0.88;;;20.70;66.30;;;;;;4143096;28;20465;-66
2022/09/03 00:18:06;;;;;;;2.38;1.35;;;20.70;65.10;;;;;;4146140;28;20069;-66
2022/09/03 00:20:21;;;;;;;1.67;1.23;;;20.70;64.80;;;;;;4143526;28;20091;-67
2022/09/03 00:22:27;;;;;;;2.60;0.90;;;20.70;65.90;;;;;;4145122;28;20032;-66
2022/09/03 00:24:33;;;;;;;1.77;1.13;;;20.70;65.10;;;;;;4145654;28;20054;-66
2022/09/03 00:26:36;;;;;;;1.85;1.15;;;20.70;64.70;;;;;;4144964;28;20045;-66
2022/09/03 00:29:02;;;;;;;1.40;1.10;;;20.70;66.70;;;;;;4145373;28;20125;-66
2022/09/03 00:31:25;;;;;;;2.47;1.20;;;20.50;65.10;;;;;;4097111;28;20100;-66
2022/09/03 00:33:28;;;;;;;1.67;1.10;;;20.40;65.40;;;;;;4144667;28;20030;-67
2022/09/03 00:35:46;;;;;;;2.03;1.30;;;20.30;66.30;;;;;;4144831;28;20189;-66
2022/09/03 00:37:47;;;;;;;0.90;0.77;;;20.30;66.20;;;;;;4144363;28;20046;-67
2022/09/03 00:39:48;;;;;;;1.67;1.08;;;20.20;65.80;;;;;;4144501;28;20061;-67
2022/09/03 00:42:08;;;;;;;2.25;1.35;;;20.10;66.20;;;;;;4143122;28;20049;-66
2022/09/03 00:44:29;;;;;;;1.60;0.98;;;20.00;66.60;;;;;;4145067;28;20045;-66
2022/09/03 00:46:57;;;;;;;1.25;1.00;;;20.00;66.70;;;;;;4143736;28;20118;-66
2022/09/03 00:49:06;;;;;;;1.77;1.30;;;20.00;66.60;;;;;;4145672;28;20117;-66
2022/09/03 00:51:16;;;;;;;3.13;1.20;;;19.90;66.80;;;;;;4143938;28;20049;-66
2022/09/03 00:53:22;;;;;;;1.48;0.95;;;19.90;67.10;;;;;;4144490;28;20026;-66
2022/09/03 00:55:31;;;;;;;1.25;1.02;;;19.80;67.20;;;;;;4138459;28;20038;-67
2022/09/03 00:57:35;;;;;;;1.35;1.05;;;19.80;67.60;;;;;;4145531;28;20034;-66
2022/09/03 00:59:59;;;;;;;2.45;1.23;;;19.90;69.00;;;;;;4144596;28;20069;-66
2022/09/03 01:02:14;;;;;;;1.75;1.20;;;19.90;67.40;;;;;;4142925;28;20516;-66
2022/09/03 01:04:37;;;;;;;1.45;1.20;;;19.90;67.40;;;;;;4145368;28;20038;-66
2022/09/03 01:06:57;;;;;;;2.25;1.30;;;20.00;68.40;;;;;;4131488;28;20072;-66
2022/09/03 01:09:10;;;;;;;3.25;1.25;;;19.90;67.10;;;;;;4144772;28;20034;-66
2022/09/03 01:11:30;;;;;;;1.70;1.10;;;19.90;67.10;;;;;;4144813;28;20140;-66
2022/09/03 01:13:56;;;;;;;3.08;1.42;;;19.90;67.20;;;;;;4141645;28;20030;-66
2022/09/03 01:16:22;;;;;;;2.33;1.30;;;19.90;67.20;;;;;;4141829;28;20034;-67
2022/09/03 01:19:01;;;;;;;1.10;0.90;;;19.80;67.40;;;;;;4143986;28;20493;-66
2022/09/03 01:21:29;;;;;;;1.88;1.20;;;19.80;68.30;;;;;;4143427;28;20022;-66
2022/09/03 01:23:53;;;;;;;2.60;1.20;;;19.70;67.50;;;;;;4144709;28;20080;-66
2022/09/03 01:26:03;;;;;;;1.50;1.05;;;19.70;67.60;;;;;;4140996;28;20038;-66
2022/09/03 01:28:12;;;;;;;1.80;1.20;;;19.60;67.80;;;;;;4140930;28;20036;-65
2022/09/03 01:30:17;;;;;;;1.83;1.38;;;19.50;68.30;;;;;;4146279;28;20084;-66
2022/09/03 01:32:30;;;;;;;3.55;1.50;;;19.40;68.80;;;;;;4144474;28;20550;-66
2022/09/03 01:34:44;;;;;;;1.80;1.33;;;19.20;69.00;;;;;;4144900;28;20033;-66
2022/09/03 01:37:03;;;;;;;1.90;1.30;;;19.20;69.40;;;;;;4144331;28;20456;-66
2022/09/03 01:39:06;;;;;;;1.35;1.02;;;19.10;69.80;;;;;;4143565;28;20448;-66
2022/09/03 01:44:02;;;;;;;2.03;1.33;;;18.70;70.60;;;;;;4123650;28;20061;-66
2022/09/03 01:46:24;;;;;;;2.78;1.60;;;18.50;71.20;;;;;;4142193;28;20034;-66
2022/09/03 01:49:09;;;;;;;2.95;1.48;;;18.40;72.00;;;;;;4142709;28;20034;-66
2022/09/03 01:51:26;;;;;;;2.22;1.48;;;18.20;72.50;;;;;;4142073;28;20072;-66
2022/09/03 01:53:56;;;;;;;2.75;1.55;;;18.10;73.20;;;;;;4142565;28;20038;-66
2022/09/03 01:56:18;;;;;;;4.32;1.80;;;17.90;73.50;;;;;;4143595;28;20080;-66
2022/09/03 01:58:32;;;;;;;2.95;1.67;;;17.80;73.80;;;;;;4142524;28;20026;-66
2022/09/03 02:00:37;;;;;;;2.30;1.35;;;17.80;73.80;;;;;;4143749;28;20375;-66
2022/09/03 02:02:42;;;;;;;2.53;1.70;;;17.80;73.80;;;;;;4144138;28;20040;-66
2022/09/03 02:04:56;;;;;;;2.28;1.33;;;17.80;73.80;;;;;;4143650;28;20116;-66
2022/09/03 02:06:59;;;;;;;2.10;1.38;;;17.90;73.70;;;;;;4143212;28;20113;-66
2022/09/03 02:09:00;;;;;;;2.50;1.70;;;17.90;73.60;;;;;;4141590;28;20128;-66
2022/09/03 02:11:01;;;;;;;3.33;1.60;;;17.90;73.50;;;;;;4141577;28;20026;-66
2022/09/03 02:13:34;;;;;;;2.17;1.35;;;18.00;73.70;;;;;;4143840;28;20053;-67
2022/09/03 02:15:38;;;;;;;4.22;1.52;;;18.10;74.50;;;;;;4106699;28;20100;-66
2022/09/03 02:17:41;;;;;;;3.28;1.60;;;18.10;73.60;;;;;;4141654;28;20038;-66
2022/09/03 02:19:42;;;;;;;2.55;1.50;;;18.10;73.40;;;;;;4144218;28;20061;-67
2022/09/03 02:21:52;;;;;;;2.40;1.40;;;18.20;73.60;;;;;;4144416;28;20022;-66
2022/09/03 02:23:52;;;;;;;2.40;1.50;;;18.30;73.10;;;;;;4143695;28;20042;-66
2022/09/03 02:25:59;;;;;;;2.35;1.52;;;18.30;73.00;;;;;;4143454;28;20084;-66
2022/09/03 02:28:00;;;;;;;2.15;1.23;;;18.30;72.80;;;;;;4143085;28;20655;-66
2022/09/03 02:30:01;;;;;;;2.05;1.05;;;18.30;72.60;;;;;;4144897;28;20639;-66
2022/09/03 02:32:02;;;;;;;2.30;1.50;;;18.40;72.70;;;;;;4142246;28;20029;-66
2022/09/03 02:34:02;;;;;;;2.08;1.38;;;18.40;72.40;;;;;;4142998;28;20037;-66
2022/09/03 02:36:07;;;;;;;1.27;1.10;;;18.40;72.40;;;;;;4142419;28;20026;-67
2022/09/03 02:38:10;;;;;;;1.90;1.20;;;18.40;72.40;;;;;;4143553;28;20049;-66
2022/09/03 02:40:10;;;;;;;1.27;0.95;;;18.40;72.40;;;;;;4142547;28;20084;-67
2022/09/03 02:42:12;;;;;;;2.35;1.30;;;18.40;72.50;;;;;;4143348;28;20493;-66
2022/09/03 02:44:22;;;;;;;1.98;1.23;;;18.40;72.60;;;;;;4143985;28;20030;-67
2022/09/03 02:46:28;;;;;;;1.83;1.10;;;18.50;72.30;;;;;;4141338;28;20505;-66
2022/09/03 02:48:29;;;;;;;1.60;1.23;;;18.50;72.40;;;;;;4142587;28;20022;-66
2022/09/03 02:50:29;;;;;;;3.55;1.40;;;18.50;72.50;;;;;;4143576;28;21209;-66
2022/09/03 02:52:30;;;;;;;2.53;1.48;;;18.40;72.70;;;;;;4142942;28;20350;-67
2022/09/03 02:54:34;;;;;;;2.17;1.50;;;18.40;73.10;;;;;;4143509;28;20037;-67
2022/09/03 02:56:35;;;;;;;2.42;1.50;;;18.30;73.50;;;;;;4142969;28;20500;-66
2022/09/03 02:58:36;;;;;;;2.42;1.25;;;18.20;73.90;;;;;;4143787;28;20038;-66
2022/09/03 03:00:37;;;;;;;2.70;1.48;;;18.20;73.70;;;;;;4141540;28;20045;-66
2022/09/03 03:02:38;;;;;;;2.42;1.38;;;18.20;73.90;;;;;;4142799;28;20026;-66
2022/09/03 03:04:38;;;;;;;1.98;1.40;;;18.20;73.90;;;;;;4142318;28;20049;-66
2022/09/03 03:06:39;;;;;;;3.28;1.35;;;18.30;74.30;;;;;;4131663;28;20046;-66
2022/09/03 03:08:40;;;;;;;2.83;1.42;;;18.30;74.30;;;;;;4141571;28;21092;-66
2022/09/03 03:10:43;;;;;;;2.10;1.52;;;18.20;74.50;;;;;;4141885;28;20042;-66
2022/09/03 03:12:44;;;;;;;2.22;1.42;;;18.10;74.60;;;;;;4141244;28;20038;-66
2022/09/03 03:14:45;;;;;;;2.30;1.63;;;18.10;75.00;;;;;;4143743;28;20050;-66
2022/09/03 03:16:45;;;;;;;3.17;1.40;;;17.90;75.20;;;;;;4142662;28;20068;-66
2022/09/03 03:18:46;;;;;;;3.63;2.10;;;17.90;75.60;;;;;;4142757;28;20071;-66
2022/09/03 03:20:47;;;;;;;3.63;2.00;;;17.70;76.20;;;;;;4143219;28;20530;-66
2022/09/03 03:22:47;;;;;;;3.25;1.70;;;17.60;76.80;;;;;;4143804;28;20038;-66
2022/09/03 03:24:49;;;;;;;2.15;1.70;;;17.50;77.30;;;;;;4143242;28;20488;-66
2022/09/03 03:26:49;;;;;;;2.65;1.60;;;17.40;77.50;;;;;;4143100;28;20045;-66
2022/09/03 03:28:56;;;;;;;2.88;1.48;;;17.40;77.70;;;;;;4143773;28;20054;-66
2022/09/03 03:30:57;;;;;;;3.53;1.80;;;17.40;77.80;;;;;;4142936;28;20037;-66
2022/09/03 03:32:57;;;;;;;2.83;1.50;;;17.50;77.70;;;;;;4143798;28;20042;-66
2022/09/03 03:34:58;;;;;;;3.92;1.60;;;17.50;77.30;;;;;;4142554;28;20061;-66
2022/09/03 03:36:59;;;;;;;3.15;1.50;;;17.50;77.50;;;;;;4141870;28;20030;-66
2022/09/03 03:39:00;;;;;;;3.90;1.70;;;17.60;77.10;;;;;;4144037;28;20044;-66
2022/09/03 03:41:17;;;;;;;2.50;1.73;;;17.60;77.10;;;;;;4146137;28;20034;-66
2022/09/03 03:43:18;;;;;;;3.85;1.63;;;17.60;77.20;;;;;;4145255;28;20313;-66
2022/09/03 03:45:18;;;;;;;2.72;1.48;;;17.60;77.10;;;;;;4145386;28;20029;-66
2022/09/03 03:47:19;;;;;;;5.03;2.05;;;17.60;77.10;;;;;;4146227;28;20122;-66
2022/09/03 03:49:19;;;;;;;6.65;2.00;;;17.60;77.10;;;;;;4146547;28;20536;-66
2022/09/03 03:51:20;;;;;;;3.00;1.70;;;17.50;77.20;;;;;;4144935;28;20400;-65
2022/09/03 03:53:20;;;;;;;3.83;1.70;;;17.50;77.40;;;;;;4146439;28;20030;-67
2022/09/03 03:55:21;;;;;;;2.42;1.65;;;17.50;77.50;;;;;;4144884;28;20057;-67
2022/09/03 03:57:22;;;;;;;2.50;1.77;;;17.50;77.40;;;;;;4146248;28;20037;-66
2022/09/03 03:59:23;;;;;;;2.20;1.50;;;17.50;77.70;;;;;;4145904;28;20408;-65
2022/09/03 04:01:25;;;;;;;2.97;1.70;;;17.60;77.60;;;;;;4144617;28;20034;-66
2022/09/03 04:03:26;;;;;;;2.55;1.80;;;17.50;77.10;;;;;;4145521;28;20038;-66
2022/09/03 04:05:26;;;;;;;2.42;1.38;;;17.50;77.00;;;;;;4145625;28;20052;-66
2022/09/03 04:07:27;;;;;;;2.47;1.60;;;17.50;77.20;;;;;;4146515;28;20034;-66
2022/09/03 04:09:28;;;;;;;3.38;1.75;;;17.50;77.00;;;;;;4143540;28;20048;-66
2022/09/03 04:11:28;;;;;;;4.78;1.75;;;17.50;77.20;;;;;;4144234;28;20050;-66
2022/09/03 04:13:30;;;;;;;3.13;1.92;;;17.50;77.30;;;;;;4145935;28;20076;-66
2022/09/03 04:15:31;;;;;;;3.78;1.70;;;17.50;77.40;;;;;;4143176;28;20038;-66
2022/09/03 04:17:32;;;;;;;2.38;1.67;;;17.50;77.30;;;;;;4145499;28;20375;-66
2022/09/03 04:19:32;;;;;;;1.85;1.40;;;17.50;77.30;;;;;;4145205;28;20057;-66
2022/09/03 04:21:33;;;;;;;2.97;1.52;;;17.60;77.00;;;;;;4145199;28;20117;-66
2022/09/03 04:23:36;;;;;;;2.17;1.58;;;17.60;77.10;;;;;;4145867;28;20041;-66
2022/09/03 04:25:36;;;;;;;2.22;1.40;;;17.60;77.10;;;;;;4141333;28;20037;-64
2022/09/03 04:27:37;;;;;;;2.22;1.60;;;17.60;76.60;;;;;;4145554;28;20116;-66
2022/09/03 04:29:38;;;;;;;1.80;1.15;;;17.60;76.50;;;;;;4144669;28;20542;-65
2022/09/03 04:32:51;;;;;;;2.28;1.42;;;17.50;77.20;;;;;;4144599;28;20040;-66
2022/09/03 04:33:59;;;;;;;3.10;1.27;;;17.50;76.70;;;;;;4144257;28;20547;-66
2022/09/03 04:36:13;;;;;;;1.85;1.35;;;17.50;76.90;;;;;;4144892;28;20034;-67
2022/09/03 04:38:14;;;;;;;3.25;1.73;;;17.50;77.20;;;;;;4144145;28;20108;-67
2022/09/03 04:40:14;;;;;;;2.33;1.35;;;17.50;77.00;;;;;;4144704;28;20038;-66
2022/09/03 04:42:15;;;;;;;2.33;1.50;;;17.50;77.00;;;;;;4145470;28;20030;-67
2022/09/03 04:44:15;;;;;;;2.42;1.50;;;17.50;77.20;;;;;;4144376;28;20292;-66
2022/09/03 04:46:16;;;;;;;4.55;1.67;;;17.40;77.50;;;;;;4143860;28;20137;-66
2022/09/03 04:48:17;;;;;;;3.72;1.58;;;17.30;77.60;;;;;;4145680;28;20050;-66
2022/09/03 04:50:17;;;;;;;3.17;1.63;;;17.40;77.50;;;;;;4145850;28;20079;-66
2022/09/03 04:52:18;;;;;;;4.30;1.85;;;17.30;77.60;;;;;;4144353;28;20053;-66
2022/09/03 04:54:18;;;;;;;1.52;1.02;;;17.20;77.70;;;;;;4146030;28;20033;-66
2022/09/03 04:56:25;;;;;;;3.25;1.85;;;17.20;78.00;;;;;;4145152;28;20486;-66
2022/09/03 04:58:26;;;;;;;2.58;1.45;;;17.20;78.30;;;;;;4143140;28;20042;-66
2022/09/03 05:00:26;;;;;;;3.42;1.60;;;17.20;78.50;;;;;;4141204;28;20092;-66
2022/09/03 05:02:27;;;;;;;3.10;1.73;;;17.20;78.50;;;;;;4142940;28;20118;-66
2022/09/03 05:04:27;;;;;;;3.20;1.60;;;17.10;78.60;;;;;;4145102;28;20053;-66
2022/09/03 05:06:30;;;;;;;3.55;2.00;;;17.10;78.90;;;;;;4143675;28;20030;-66
2022/09/03 05:08:31;;;;;;;4.28;1.75;;;17.20;78.80;;;;;;4144659;28;20034;-66
2022/09/03 05:10:32;;;;;;;2.58;1.55;;;17.10;78.90;;;;;;4144147;28;20041;-66
2022/09/03 05:12:33;;;;;;;2.63;1.80;;;17.10;79.10;;;;;;4145195;28;20057;-67
2022/09/03 05:14:34;;;;;;;3.10;1.75;;;17.20;79.30;;;;;;4145145;28;20033;-66
2022/09/03 05:16:35;;;;;;;3.13;2.08;;;17.20;79.90;;;;;;4143616;28;20507;-66
2022/09/03 05:18:36;;;;;;;4.90;2.38;;;17.30;80.30;;;;;;4145440;28;20058;-67
2022/09/03 05:20:37;;;;;;;4.88;1.90;;;17.40;79.60;;;;;;4143087;28;20118;-66
2022/09/03 05:22:37;;;;;;;2.75;1.70;;;17.40;79.30;;;;;;4142501;28;20034;-66
2022/09/03 05:24:38;;;;;;;4.35;1.63;;;17.30;79.20;;;;;;4144004;28;20057;-66
2022/09/03 05:26:38;;;;;;;4.70;2.00;;;17.30;79.70;;;;;;4143591;28;20026;-66
2022/09/03 05:28:41;;;;;;;3.70;1.90;;;17.40;79.50;;;;;;4139909;28;20038;-66
2022/09/03 05:30:42;;;;;;;4.68;2.15;;;17.30;79.50;;;;;;4141596;28;20038;-67
2022/09/03 05:32:42;;;;;;;4.22;1.85;;;17.30;79.80;;;;;;4139003;28;20042;-67
2022/09/03 05:34:43;;;;;;;9.05;1.95;;;17.30;79.70;;;;;;4143295;28;20060;-67
2022/09/03 05:36:47;;;;;;;3.25;1.63;;;17.30;79.80;;;;;;4142060;28;20026;-67
2022/09/03 05:38:49;;;;;;;3.45;1.85;;;17.30;79.80;;;;;;4143731;28;20061;-67
2022/09/03 05:40:49;;;;;;;3.53;1.83;;;17.40;79.90;;;;;;4143777;28;20493;-67
2022/09/03 05:42:56;;;;;;;4.32;1.85;;;17.30;80.20;;;;;;4144928;28;20044;-67
2022/09/03 05:44:57;;;;;;;3.50;1.98;;;17.20;80.40;;;;;;4142322;28;20129;-67
2022/09/03 05:46:58;;;;;;;2.03;1.63;;;17.20;80.50;;;;;;4142389;28;20493;-67
2022/09/03 05:49:04;;;;;;;3.47;1.80;;;17.20;81.40;;;;;;4143945;28;20033;-67
2022/09/03 05:51:08;;;;;;;4.07;2.10;;;17.20;80.80;;;;;;4143653;28;20060;-67
2022/09/03 05:53:09;;;;;;;4.85;2.03;;;17.20;80.90;;;;;;4144388;28;20034;-66
2022/09/03 05:55:09;;;;;;;4.00;1.88;;;17.20;81.40;;;;;;4143549;28;20493;-69
2022/09/03 05:57:11;;;;;;;2.33;1.40;;;17.10;81.50;;;;;;4143734;28;20045;-66
2022/09/03 05:59:12;;;;;;;4.95;1.83;;;17.20;82.10;;;;;;4144689;28;20033;-67
2022/09/03 06:01:26;;;;;;;3.40;1.85;;;17.20;81.40;;;;;;4140509;28;20037;-67
2022/09/03 06:03:27;;;;;;;5.00;2.17;;;17.20;81.60;;;;;;4143417;28;20404;-68
2022/09/03 06:05:27;;;;;;;4.68;2.22;;;17.20;81.60;;;;;;4142712;28;20030;-67
2022/09/03 06:07:28;;;;;;;3.92;1.85;;;17.20;81.70;;;;;;4143701;28;20033;-68
2022/09/03 06:09:28;;;;;;;3.20;1.70;;;17.20;81.80;;;;;;4143701;28;20045;-67
2022/09/03 06:11:31;;;;;;;7.53;2.15;;;17.30;82.30;;;;;;4137207;28;20072;-67
2022/09/03 06:13:33;;;;;;;4.88;2.08;;;17.30;82.10;;;;;;4143037;28;20025;-67
2022/09/03 06:15:33;;;;;;;3.38;1.95;;;17.40;82.20;;;;;;4142173;28;20030;-67
2022/09/03 06:17:36;;;;;;;3.00;1.90;;;17.40;82.10;;;;;;4143213;28;20394;-67
2022/09/03 06:19:37;;;;;;;4.90;1.73;;;17.40;82.20;;;;;;4142831;28;20038;-67
2022/09/03 06:21:41;;;;;;;4.97;1.83;;;17.50;82.00;;;;;;4141321;28;20030;-67
2022/09/03 06:23:42;;;;;;;6.30;1.90;;;17.60;81.70;;;;;;4143630;28;20697;-66
2022/09/03 06:25:42;;;;;;;3.97;2.17;;;17.70;81.60;;;;;;4143353;28;20046;-67
2022/09/03 06:27:43;;;;;;;3.97;1.85;;;17.70;81.10;;;;;;4144176;28;20041;-66
2022/09/03 06:29:43;;;;;;;3.53;1.83;;;17.80;81.30;;;;;;4145827;28;20038;-67
2022/09/03 06:31:44;;;;;;;3.65;1.80;;;17.90;81.00;;;;;;4136418;28;20096;-67
2022/09/03 06:33:46;;;;;;;2.85;1.65;;;18.10;80.90;;;;;;4142871;28;20046;-66
2022/09/03 06:35:47;;;;;;;2.83;1.83;;;18.40;79.60;;;;;;4143547;28;20505;-67
2022/09/03 06:37:47;;;;;;;3.28;1.80;;;18.70;78.50;;;;;;4141085;28;20038;-68
2022/09/03 06:39:50;;;;;;;3.28;1.58;;;19.00;78.10;;;;;;4142077;28;20046;-68
2022/09/03 06:41:50;;;;;;;2.60;1.70;;;19.20;77.50;;;;;;4141981;28;20049;-68
2022/09/03 06:44:01;;;;;;;6.70;1.77;;;19.60;76.60;;;;;;4140834;28;20401;-68
2022/09/03 06:46:05;;;;;;;3.35;1.40;;;20.00;76.50;;;;;;4142373;28;20038;-68
2022/09/03 06:48:06;;;;;;;2.88;1.40;;;20.40;78.00;;;;;;4138455;28;20389;-68
2022/09/03 06:50:07;;;;;;;4.63;1.60;;;20.80;72.70;;;;;;4143258;28;20026;-67
2022/09/03 06:52:08;;;;;;;3.17;1.90;;;21.10;71.40;;;;;;4138437;28;20057;-68
2022/09/03 06:54:10;;;;;;;4.70;1.92;;;21.40;70.20;;;;;;4140779;28;20030;-67
2022/09/03 06:56:13;;;;;;;3.90;1.98;;;21.60;69.80;;;;;;4137897;28;20046;-68
2022/09/03 06:58:13;;;;;;;2.83;1.73;;;22.00;69.40;;;;;;4143320;28;20042;-67
2022/09/03 07:00:15;;;;;;;1.65;1.25;;;22.20;68.10;;;;;;4142960;28;20038;-68
2022/09/03 07:02:15;;;;;;;2.35;1.30;;;22.60;67.20;;;;;;4144251;28;20026;-68
2022/09/03 07:04:16;;;;;;;1.67;1.05;;;22.50;67.10;;;;;;4137633;28;20038;-68
2022/09/03 07:06:18;;;;;;;3.20;1.77;;;22.90;66.80;;;;;;4142154;28;20022;-67
2022/09/03 07:08:19;;;;;;;4.07;1.58;;;23.20;67.50;;;;;;4144165;28;20384;-67
2022/09/03 07:10:20;;;;;;;3.90;1.85;;;23.50;66.30;;;;;;4141834;28;20038;-67
2022/09/03 07:12:21;;;;;;;2.30;1.60;;;23.60;64.20;;;;;;4142290;28;20022;-67
2022/09/03 07:14:21;;;;;;;4.18;1.85;;;23.70;63.30;;;;;;4142418;28;20546;-67
2022/09/03 07:16:32;;;;;;;2.10;1.38;;;23.90;62.90;;;;;;4145585;28;20034;-67
2022/09/03 07:18:33;;;;;;;4.40;1.40;;;24.20;65.10;;;;;;4143204;28;20038;-68
2022/09/03 07:20:34;;;;;;;2.50;1.50;;;24.30;61.80;;;;;;4144892;28;20058;-68
2022/09/03 07:22:35;;;;;;;2.45;1.38;;;24.50;61.70;;;;;;4146356;28;20030;-69
2022/09/03 07:24:36;;;;;;;4.65;2.17;;;24.70;63.60;;;;;;4146722;28;20080;-68
2022/09/03 07:26:39;;;;;;;2.97;1.83;;;24.80;62.50;;;;;;4143671;28;20105;-68
2022/09/03 07:28:42;;;;;;;3.20;1.60;;;24.90;60.40;;;;;;4146637;28;20135;-68
2022/09/03 07:30:42;;;;;;;6.13;2.25;;;25.10;60.50;;;;;;4143854;28;20452;-68
2022/09/03 07:32:43;;;;;;;3.95;1.60;;;25.10;59.70;;;;;;4146002;28;20026;-69
2022/09/03 07:34:43;;;;;;;2.83;1.77;;;25.10;59.50;;;;;;4145314;28;20049;-69
2022/09/03 07:36:46;;;;;;;3.50;1.40;;;25.20;59.20;;;;;;4145205;28;20641;-68
2022/09/03 07:38:47;;;;;;;3.00;1.38;;;25.30;59.70;;;;;;4146004;28;20504;-68
2022/09/03 07:40:47;;;;;;;2.28;1.30;;;25.20;59.50;;;;;;4143725;28;20057;-68
2022/09/03 07:42:49;;;;;;;5.28;1.08;;;25.30;59.70;;;;;;4146948;28;20124;-68
2022/09/03 07:44:50;;;;;;;2.78;0.90;;;25.30;58.50;;;;;;4146827;28;20474;-68
2022/09/03 07:46:51;;;;;;;1.25;0.70;;;25.30;58.40;;;;;;4146126;28;20038;-68
2022/09/03 07:48:53;;;;;;;4.10;1.20;;;25.10;58.50;;;;;;4145512;28;20041;-68
2022/09/03 07:51:00;;;;;;;;;;;25.20;59.20;;;;;;4146152;28;20159;-67
2022/09/03 07:53:00;;;;;;;1.83;0.80;;;25.00;58.30;;;;;;4146700;28;19914;-68
2022/09/03 07:55:03;;;;;;;1.42;0.90;;;25.10;58.80;;;;;;4145191;28;20034;-69
2022/09/03 07:57:04;;;;;;;2.35;1.10;;;25.00;58.60;;;;;;4146324;28;20041;-68
2022/09/03 07:59:05;;;;;;;3.13;1.00;;;25.00;59.30;;;;;;4144766;28;20378;-68
2022/09/03 08:01:10;;;;;;;1.27;0.85;;;25.00;59.00;;;;;;4144871;28;20056;-68
2022/09/03 08:03:10;;;;;;;1.52;0.95;;;24.90;58.60;;;;;;4146337;28;20045;-68
2022/09/03 08:05:11;;;;;;;1.33;0.75;;;25.00;59.00;;;;;;4145813;28;20034;-68
2022/09/03 08:07:12;;;;;;;1.33;1.23;;;25.10;59.00;;;;;;4139673;28;20026;-67
2022/09/03 08:09:13;;;;;;;2.10;1.00;;;25.10;59.20;;;;;;4138982;28;20520;-70
2022/09/03 08:11:20;;;;;;;1.90;0.90;;;25.00;58.30;;;;;;4139635;28;20038;-68
2022/09/03 08:13:21;;;;;;;2.50;0.80;;;25.10;60.40;;;;;;4146077;28;20061;-68
2022/09/03 08:15:21;;;;;;;4.07;1.30;;;24.90;58.30;;;;;;4144574;28;20038;-68
2022/09/03 08:17:22;;;;;;;1.65;0.77;;;24.90;58.40;;;;;;4140005;28;20540;-67
2022/09/03 08:19:23;;;;;;;1.45;0.88;;;25.00;58.70;;;;;;4144679;28;20180;-68
2022/09/03 08:21:25;;;;;;;1.95;0.82;;;25.10;58.80;;;;;;4142303;28;20040;-69
2022/09/03 08:23:26;;;;;;;2.22;1.00;;;25.10;58.60;;;;;;4144141;28;20022;-66
2022/09/03 08:25:26;;;;;;;1.63;0.80;;;25.20;58.50;;;;;;4144816;28;20088;-66
2022/09/03 08:27:27;;;;;;;0.98;0.77;;;25.20;59.50;;;;;;4144332;28;20033;-66
2022/09/03 08:29:28;;;;;;;1.25;0.70;;;25.30;59.60;;;;;;4143703;28;20026;-66
2022/09/03 08:31:29;;;;;;;1.60;0.77;;;25.40;58.10;;;;;;4142834;28;20565;-66
2022/09/03 08:33:36;;;;;;;1.55;0.65;;;25.20;58.00;;;;;;4142489;28;20165;-67
2022/09/03 08:35:37;;;;;;;2.70;1.02;;;25.20;58.30;;;;;;4145237;28;20054;-67
2022/09/03 08:37:38;;;;;;;1.77;0.90;;;25.30;58.50;;;;;;4145943;28;20030;-68
2022/09/03 08:39:38;;;;;;;2.60;0.93;;;25.20;59.40;;;;;;4144987;28;20125;-68
2022/09/03 08:41:39;;;;;;;3.13;1.00;;;25.20;58.50;;;;;;4145141;28;20054;-67
2022/09/03 08:43:51;;;;;;;1.38;1.02;;;25.00;58.70;;;;;;4144234;28;20034;-67
2022/09/03 08:45:51;;;;;;;2.22;0.75;;;25.10;59.40;;;;;;4142069;28;20486;-68
2022/09/03 08:47:58;;;;;;;3.10;1.00;;;25.20;58.80;;;;;;4145100;28;20038;-68
2022/09/03 08:50:15;;;;;;;1.88;1.13;;;25.30;58.80;;;;;;4144698;28;20489;-67
2022/09/03 08:52:37;;;;;;;1.80;1.02;;;25.40;62.10;;;;;;4144809;28;20057;-67
2022/09/03 08:54:38;;;;;;;2.10;0.88;;;25.30;58.30;;;;;;4156365;28;20122;-69
2022/09/03 08:56:41;;;;;;;1.15;1.00;;;25.40;59.00;;;;;;4143184;28;20080;-68
2022/09/03 08:58:43;;;;;;;;;;;25.40;58.40;;;;;;4141162;28;20470;-69
2022/09/03 09:01:21;;;;;;;0.98;0.88;;;25.50;58.20;;;;;;4141932;28;19918;-68
2022/09/03 09:04:03;;;;;;;1.05;0.70;;;25.50;58.90;;;;;;4142324;28;20453;-68
2022/09/03 09:06:32;;;;;;;1.52;0.95;;;25.50;59.70;;;;;;4133069;28;20030;-68
2022/09/03 09:08:52;;;;;;;6.00;0.98;;;25.60;59.70;;;;;;4140424;28;20115;-68
2022/09/03 09:11:30;;;;;;;1.40;1.10;;;25.60;59.70;;;;;;4142478;28;20064;-68
2022/09/03 09:13:56;;;;;;;1.40;0.90;;;25.40;58.90;;;;;;4132372;28;20488;-67
2022/09/03 09:16:21;;;;;;;2.88;1.20;;;25.40;58.90;;;;;;4143943;28;20064;-67
2022/09/03 09:18:24;;;;;;;1.50;0.80;;;25.40;58.40;;;;;;4144006;28;20121;-68
2022/09/03 09:20:41;;;;;;;4.28;1.08;;;25.60;58.80;;;;;;4143160;28;20088;-68
2022/09/03 09:23:05;;;;;;;1.40;0.80;;;25.60;58.90;;;;;;4142635;28;20026;-69
2022/09/03 09:25:21;;;;;;;2.15;0.90;;;25.70;58.50;;;;;;4138623;28;20037;-70
2022/09/03 09:27:22;;;;;;;0.98;0.80;;;25.70;59.00;;;;;;4144164;28;20543;-69
2022/09/03 09:29:30;;;;;;;2.95;0.90;;;25.70;59.30;;;;;;4145385;28;20045;-69
2022/09/03 09:31:31;;;;;;;2.30;0.90;;;25.80;60.10;;;;;;4140748;28;20465;-68
2022/09/03 09:33:33;;;;;;;1.65;0.80;;;25.80;59.00;;;;;;4144720;28;20030;-69
2022/09/03 09:35:33;;;;;;;1.20;0.77;;;25.90;58.90;;;;;;4143535;28;20048;-68
2022/09/03 09:37:45;;;;;;;2.13;1.08;;;25.90;59.00;;;;;;4143354;28;20022;-69
2022/09/03 09:39:56;;;;;;;2.35;1.05;;;25.90;59.00;;;;;;4143104;28;20042;-69
2022/09/03 09:42:07;;;;;;;1.38;0.80;;;25.90;58.20;;;;;;4143337;28;20026;-68
2022/09/03 09:44:07;;;;;;;1.67;0.85;;;26.00;58.80;;;;;;4144964;28;20046;-69
2022/09/03 09:46:24;;;;;;;2.20;1.38;;;26.00;58.50;;;;;;4142310;28;20052;-69
2022/09/03 09:48:36;;;;;;;0.90;0.80;;;25.90;58.30;;;;;;4134653;28;20022;-69
2022/09/03 09:50:37;;;;;;;1.75;0.70;;;26.00;58.90;;;;;;4140667;28;20042;-69
2022/09/03 09:52:37;;;;;;;2.22;1.00;;;26.00;58.50;;;;;;4141183;28;20148;-69
2022/09/03 09:54:40;;;;;;;1.27;1.00;;;26.00;58.30;;;;;;4144377;28;20038;-68
2022/09/03 09:56:41;;;;;;;;;;;26.00;58.70;;;;;;4143635;28;20046;-69
2022/09/03 09:58:42;;;;;;;4.00;1.15;;;26.00;59.10;;;;;;4145661;28;19913;-69
2022/09/03 10:00:59;;;;;;;1.67;0.93;;;26.00;58.80;;;;;;4142775;28;20439;-68
2022/09/03 10:03:00;;;;;;;2.00;0.98;;;26.00;59.40;;;;;;4144078;28;20109;-68
2022/09/03 10:05:13;;;;;;;1.58;0.88;;;26.10;59.30;;;;;;4143968;28;21018;-68
2022/09/03 10:07:31;;;;;;;1.92;0.88;;;26.10;59.00;;;;;;4143332;28;20537;-69
2022/09/03 10:09:32;;;;;;;3.40;1.50;;;26.10;58.90;;;;;;4142228;28;20485;-68
2022/09/03 10:11:38;;;;;;;2.13;1.00;;;26.10;58.70;;;;;;4142896;28;20048;-68
2022/09/03 10:13:44;;;;;;;1.48;1.02;;;26.10;59.00;;;;;;4142332;28;20096;-69
2022/09/03 10:16:19;;;;;;;1.70;1.13;;;26.20;60.60;;;;;;4141703;28;20034;-69
2022/09/03 10:18:28;;;;;;;1.55;1.08;;;26.20;59.50;;;;;;4131428;28;20060;-68
2022/09/03 10:20:47;;;;;;;1.60;1.05;;;26.30;61.10;;;;;;4141243;28;20080;-69
2022/09/03 10:22:54;;;;;;;3.40;1.20;;;26.30;60.90;;;;;;4140227;28;20382;-68
2022/09/03 10:25:02;;;;;;;2.20;1.10;;;26.10;59.60;;;;;;4144593;28;20026;-69
2022/09/03 10:27:02;;;;;;;1.83;1.15;;;26.20;60.30;;;;;;4142320;28;20026;-68
2022/09/03 10:29:05;;;;;;;1.60;0.90;;;26.30;60.00;;;;;;4143578;28;20515;-68
2022/09/03 10:31:23;;;;;;;1.50;0.88;;;26.20;60.40;;;;;;4141951;28;20022;-68
2022/09/03 10:33:38;;;;;;;2.13;0.90;;;26.30;63.10;;;;;;4140816;28;20073;-67
2022/09/03 10:36:06;;;;;;;1.35;0.93;;;26.40;62.50;;;;;;4139041;28;20057;-67
2022/09/03 10:38:06;;;;;;;1.77;0.98;;;26.40;64.10;;;;;;4143797;28;20057;-67
2022/09/03 10:40:07;;;;;;;2.85;1.17;;;26.40;63.40;;;;;;4142912;28;20037;-68
2022/09/03 10:42:32;;;;;;;1.92;1.00;;;26.30;60.60;;;;;;4143097;28;20394;-67
2022/09/03 10:44:52;;;;;;;1.30;0.98;;;26.30;61.00;;;;;;4140119;28;20489;-67
2022/09/03 10:47:13;;;;;;;1.52;1.10;;;26.40;61.40;;;;;;4140695;28;20381;-66
2022/09/03 10:49:42;;;;;;;3.58;1.55;;;26.50;61.60;;;;;;4141813;28;20034;-66
2022/09/03 10:52:03;;;;;;;1.73;1.33;;;26.40;60.30;;;;;;4146316;28;20038;-66
2022/09/03 10:54:41;;;;;;;3.17;1.20;;;26.30;60.20;;;;;;4142421;28;20076;-67
2022/09/03 10:57:15;;;;;;;2.70;1.20;;;26.30;60.60;;;;;;4145599;28;20054;-66
2022/09/03 10:59:35;;;;;;;1.95;1.20;;;26.20;60.40;;;;;;4144164;28;20111;-67
2022/09/03 11:01:56;;;;;;;3.65;0.90;;;26.30;60.70;;;;;;4143694;28;20046;-67